createdAt,value
2023-02-24T00:03:45.123Z,21.65
2023-02-24T00:08:47.450Z,22.13
2023-02-24T00:13:49.077Z,21.48
2023-02-24T00:18:51.209Z,21.42
2023-02-24T00:23:53.699Z,23.92
2023-02-24T00:29:03.251Z,22.75
2023-02-24T00:34:06.340Z,21.98
2023-02-24T00:39:10.137Z,21.67
2023-02-24T00:44:14.642Z,22.50
2023-02-24T00:49:19.497Z,22.52
2023-02-24T00:54:21.765Z,24.30
2023-02-24T00:59:24.139Z,22.08
2023-02-24T01:04:29.354Z,21.35
2023-02-24T01:09:32.217Z,21.38
2023-02-24T01:14:35.503Z,22.23
2023-02-24T01:19:37.353Z,23.60
2023-02-24T01:24:41.260Z,21.02
2023-02-24T01:29:43.450Z,20.25
2023-02-24T01:34:46.231Z,21.02
2023-02-24T01:39:48.164Z,21.30
2023-02-24T01:44:51.935Z,22.73
2023-02-24T01:49:54.702Z,20.42
2023-02-24T01:55:21.798Z,20.73
2023-02-24T02:00:37.498Z,22.83
2023-02-24T02:05:40.640Z,21.17
2023-02-24T02:10:44.336Z,21.42
2023-02-24T02:16:09.206Z,22.42
2023-02-24T02:21:36.345Z,23.52
2023-02-24T02:26:47.320Z,22.05
2023-02-24T02:32:17.271Z,24.63
2023-02-24T02:37:19.107Z,25.30
2023-02-24T02:42:30.165Z,24.23
2023-02-24T02:47:41.672Z,22.75
2023-02-24T02:52:53.904Z,23.23
2023-02-24T02:57:59.180Z,22.80
2023-02-24T03:03:10.260Z,22.98
2023-02-24T03:08:15.972Z,24.63
2023-02-24T03:13:23.989Z,22.65
2023-02-24T03:18:32.211Z,22.38
2023-02-24T03:23:52.960Z,23.50
2023-02-24T03:29:18.873Z,21.17
2023-02-24T03:34:38.366Z,23.20
2023-02-24T03:39:41.869Z,23.38
2023-02-24T03:44:58.177Z,23.65
2023-02-24T03:50:00.398Z,24.23
2023-02-24T03:55:17.752Z,22.55
2023-02-24T04:00:29.505Z,23.70
2023-02-24T04:05:39.232Z,25.10
2023-02-24T04:10:52.453Z,22.70
2023-02-24T04:16:12.127Z,25.58
2023-02-24T04:21:15.922Z,22.92
2023-02-24T04:26:18.199Z,22.85
2023-02-24T04:31:23.015Z,23.13
2023-02-24T04:36:25.199Z,24.70
2023-02-24T04:41:27.561Z,29.17
2023-02-24T04:46:32.415Z,24.08
2023-02-24T04:51:34.236Z,23.20
2023-02-24T04:56:37.000Z,23.95
2023-02-24T05:01:39.999Z,24.40
2023-02-24T05:06:44.017Z,26.05
2023-02-24T05:11:51.116Z,24.92
2023-02-24T05:17:00.034Z,25.83
2023-02-24T05:22:07.031Z,27.10
2023-02-24T05:27:09.442Z,25.65
2023-02-24T05:32:11.413Z,24.58
2023-02-24T05:37:16.473Z,26.13
2023-02-24T05:42:19.465Z,25.08
2023-02-24T05:47:23.279Z,27.70
2023-02-24T05:52:25.110Z,28.00
2023-02-24T05:57:32.875Z,28.80
2023-02-24T06:02:37.653Z,26.17
2023-02-24T06:07:39.289Z,28.05
2023-02-24T06:12:40.946Z,28.10
2023-02-24T06:17:43.630Z,28.27
2023-02-24T06:22:45.214Z,26.10
2023-02-24T06:27:53.215Z,28.00
2023-02-24T06:32:56.673Z,26.37
2023-02-24T06:37:58.668Z,28.00
2023-02-24T06:43:00.238Z,27.35
2023-02-24T06:48:03.410Z,27.08
2023-02-24T06:53:09.996Z,27.40
2023-02-24T06:58:17.300Z,28.17
2023-02-24T07:03:19.892Z,29.02
2023-02-24T07:08:27.311Z,24.92
2023-02-24T07:13:30.216Z,26.05
2023-02-24T07:18:31.865Z,28.33
2023-02-24T07:23:33.502Z,26.67
2023-02-24T07:28:35.105Z,26.77
2023-02-24T07:33:37.622Z,28.73
2023-02-24T07:38:39.943Z,26.90
2023-02-24T07:43:43.945Z,25.60
2023-02-24T07:48:50.540Z,28.20
2023-02-24T07:53:54.639Z,25.60
2023-02-24T07:59:11.036Z,24.88
2023-02-24T08:04:15.899Z,27.98
2023-02-24T08:09:42.742Z,25.83
2023-02-24T08:14:50.638Z,24.60
2023-02-24T08:20:12.851Z,27.17
2023-02-24T08:25:19.074Z,24.27
2023-02-24T08:30:23.796Z,24.05
2023-02-24T08:35:35.862Z,24.67
2023-02-24T08:40:49.968Z,22.70
2023-02-24T08:46:18.126Z,23.00
2023-02-24T08:51:28.635Z,23.23
2023-02-24T08:56:34.567Z,22.88
2023-02-24T09:01:39.058Z,21.80
2023-02-24T09:07:10.843Z,21.92
2023-02-24T09:12:22.054Z,20.67
2023-02-24T09:17:50.010Z,20.50
2023-02-24T09:23:07.733Z,19.65
2023-02-24T09:28:19.922Z,17.73
2023-02-24T09:33:38.976Z,17.10
2023-02-24T09:39:02.122Z,16.38
2023-02-24T09:44:19.704Z,15.35
2023-02-24T09:49:40.022Z,15.25
2023-02-24T09:54:51.001Z,14.65
2023-02-24T10:00:22.311Z,12.27
2023-02-24T10:05:47.942Z,13.73
2023-02-24T10:11:07.113Z,12.52
2023-02-24T10:16:14.416Z,12.93
2023-02-24T10:21:49.556Z,12.85
2023-02-24T10:27:00.777Z,13.32
2023-02-24T10:32:37.080Z,13.40
2023-02-24T10:37:38.727Z,12.43
2023-02-24T10:42:48.863Z,11.68
2023-02-24T10:47:56.658Z,12.45
2023-02-24T10:53:26.080Z,10.93
2023-02-24T10:58:38.054Z,10.07
2023-02-24T11:04:00.773Z,10.23
2023-02-24T11:09:19.285Z,9.07
2023-02-24T11:14:39.529Z,11.10
2023-02-24T11:19:49.018Z,11.80
2023-02-24T11:24:51.913Z,11.90
2023-02-24T11:30:14.973Z,15.57
2023-02-24T11:35:33.588Z,15.55
2023-02-24T11:40:43.714Z,15.17
2023-02-24T11:45:58.226Z,13.68
2023-02-24T11:51:03.844Z,14.43
2023-02-24T11:56:14.214Z,14.63
2023-02-24T12:01:42.384Z,14.85
2023-02-24T12:06:57.511Z,16.83
2023-02-24T12:12:22.315Z,15.52
2023-02-24T12:17:34.732Z,15.35
2023-02-24T12:22:53.101Z,17.27
2023-02-24T12:28:04.585Z,16.40
2023-02-24T12:33:42.839Z,16.83
2023-02-24T12:38:56.836Z,17.15
2023-02-24T12:44:26.396Z,16.25
2023-02-24T12:49:43.271Z,14.57
2023-02-24T12:54:50.788Z,15.40
2023-02-24T12:59:53.024Z,13.15
2023-02-24T13:05:10.412Z,13.05
2023-02-24T13:10:21.011Z,11.55
2023-02-24T13:15:26.228Z,11.52
2023-02-24T13:20:32.547Z,11.95
2023-02-24T13:25:39.609Z,10.65
2023-02-24T13:30:44.473Z,9.23
2023-02-24T13:35:49.122Z,10.55
2023-02-24T13:40:51.172Z,11.45
2023-02-24T13:46:00.279Z,11.40
2023-02-24T13:51:13.770Z,13.30
2023-02-24T13:56:27.869Z,13.63
2023-02-24T14:01:32.121Z,13.50
2023-02-24T14:06:34.251Z,13.23
2023-02-24T14:11:37.637Z,14.98
2023-02-24T14:16:40.328Z,16.67
2023-02-24T14:21:57.447Z,15.27
2023-02-24T14:27:01.028Z,15.85
2023-02-24T14:32:02.836Z,19.58
2023-02-24T14:37:08.044Z,17.35
2023-02-24T14:42:14.005Z,18.55
2023-02-24T14:47:17.912Z,18.25
2023-02-24T14:52:26.551Z,18.83
2023-02-24T14:57:33.484Z,17.83
2023-02-24T15:02:35.296Z,16.58
2023-02-24T15:07:38.206Z,16.10
2023-02-24T15:13:14.179Z,18.40
2023-02-24T15:18:28.174Z,18.60
2023-02-24T15:23:36.115Z,18.90
2023-02-24T15:28:38.161Z,20.88
2023-02-24T15:33:43.148Z,18.10
2023-02-24T15:38:45.490Z,17.05
2023-02-24T15:43:53.124Z,17.48
2023-02-24T15:48:57.405Z,21.23
2023-02-24T15:54:01.694Z,18.73
2023-02-24T15:59:03.454Z,18.85
2023-02-24T16:04:05.593Z,17.25
2023-02-24T16:09:17.722Z,17.25
2023-02-24T16:14:19.403Z,18.10
2023-02-24T16:19:21.029Z,16.27
2023-02-24T16:24:22.641Z,17.08
2023-02-24T16:29:24.246Z,17.15
2023-02-24T16:34:26.026Z,17.27
2023-02-24T16:39:27.891Z,17.60
2023-02-24T16:44:29.481Z,17.95
2023-02-24T16:49:31.125Z,17.58
2023-02-24T16:54:32.776Z,18.13
2023-02-24T16:59:34.353Z,18.40
2023-02-24T17:04:35.939Z,18.15
2023-02-24T17:09:38.778Z,16.75
2023-02-24T17:14:41.177Z,16.55
2023-02-24T17:19:42.808Z,18.00
2023-02-24T17:24:44.430Z,18.10
2023-02-24T17:29:46.088Z,16.95
2023-02-24T17:34:47.820Z,17.20
2023-02-24T17:39:49.421Z,24.75
2023-02-24T17:44:51.100Z,20.35
2023-02-24T17:49:53.230Z,20.08
2023-02-24T17:54:55.681Z,31.23
2023-02-24T17:59:57.357Z,23.85
2023-02-24T18:04:59.244Z,20.67
2023-02-24T18:10:00.851Z,20.25
2023-02-24T18:15:08.706Z,21.15
2023-02-24T18:20:12.226Z,22.07
2023-02-24T18:25:14.068Z,19.75
2023-02-24T18:30:17.832Z,18.05
2023-02-24T18:35:21.937Z,18.48
2023-02-24T18:40:28.083Z,17.35
2023-02-24T18:45:31.282Z,17.00
2023-02-24T18:50:33.077Z,17.70
2023-02-24T18:55:35.871Z,17.70
2023-02-24T19:00:37.866Z,16.30
2023-02-24T19:05:39.544Z,15.60
2023-02-24T19:10:43.627Z,15.02
2023-02-24T19:15:45.469Z,12.57
2023-02-24T19:20:47.085Z,11.75
2023-02-24T19:25:48.693Z,9.43
2023-02-24T19:30:50.451Z,8.93
2023-02-24T19:35:53.488Z,9.82
2023-02-24T19:40:58.512Z,10.52
2023-02-24T19:46:06.210Z,7.65
2023-02-24T19:51:13.768Z,8.52
2023-02-24T19:56:15.480Z,6.35
2023-02-24T20:01:17.164Z,7.40
2023-02-24T20:06:25.710Z,7.35
2023-02-24T20:11:29.751Z,9.32
2023-02-24T20:16:36.842Z,7.90
2023-02-24T20:21:39.361Z,8.82
2023-02-24T20:26:43.389Z,7.97
2023-02-24T20:31:46.895Z,7.53
2023-02-24T20:36:48.629Z,8.77
2023-02-24T20:41:54.625Z,9.90
2023-02-24T20:46:56.432Z,9.15
2023-02-24T20:51:58.060Z,8.43
2023-02-24T20:56:59.653Z,7.90
2023-02-24T21:02:01.275Z,7.85
2023-02-24T21:07:02.862Z,7.88
2023-02-24T21:12:04.881Z,5.57
2023-02-24T21:17:08.216Z,6.25
2023-02-24T21:22:10.049Z,6.40
2023-02-24T21:27:11.622Z,4.05
2023-02-24T21:32:14.561Z,3.05
2023-02-24T21:37:16.330Z,3.00
2023-02-24T21:42:18.631Z,3.13
2023-02-24T21:47:20.714Z,3.28
2023-02-24T21:52:22.494Z,2.55
2023-02-24T21:57:24.474Z,3.10
2023-02-24T22:02:26.875Z,2.20
2023-02-24T22:07:28.607Z,2.78
2023-02-24T22:12:30.555Z,2.50
2023-02-24T22:17:33.803Z,3.10
2023-02-24T22:22:41.333Z,3.40
2023-02-24T22:27:43.020Z,3.17
2023-02-24T22:32:44.694Z,2.60
2023-02-24T22:37:46.496Z,2.30
2023-02-24T22:42:48.124Z,2.53
2023-02-24T22:47:49.919Z,2.70
2023-02-24T22:52:51.993Z,2.58
2023-02-24T22:57:53.576Z,2.05
2023-02-24T23:02:56.420Z,2.17
2023-02-24T23:07:58.145Z,2.38
2023-02-24T23:12:59.743Z,2.25
2023-02-24T23:18:02.547Z,2.20
2023-02-24T23:23:04.170Z,2.17
2023-02-24T23:28:06.468Z,2.47
2023-02-24T23:33:08.569Z,2.00
2023-02-24T23:38:11.161Z,3.30
2023-02-24T23:43:13.849Z,4.47
2023-02-24T23:48:15.687Z,2.33
2023-02-24T23:53:17.265Z,2.33
2023-02-24T23:58:18.896Z,2.92
